首页
METAR-TAF:

METAR-TAF

机场 :

吉隆坡国际机场

吉隆坡, 马来西亚

纬度: 02-44N, 经度: 101-42E, 海拔: 21米

当前天气观测

该预报发布于47分钟前的16:30 UTC
风速1节,风向多变
温度 28°C
湿度 89%
气压 1009 hPa
能见度10公里或以上
少量云层高于1700英尺, 积雨云.

METAR: WMKK 291630Z VRB01KT 9999 FEW017CB 28/26 Q1009 NOSIG

时间: 01:17 (17:17 UTC)

预报

该预报发布于6小时和17分钟前的11:00 UTC
预报有效从29日的 12点(UTC)到 30日的 18点(UTC)
风速3节,风向多变
能見度: 9000
少量云层高于1700英尺, 积雨云.
短暂存在
从 29日的 19点(UTC)到 29日的 23点(UTC)
风速8节,风向西
能見度: 5000
少量云层高于1000英尺
少量云层高于1700英尺, 积雨云.
雷暴, 雨,

TAF: WMKK 291100Z 2912/3018 VRB03KT 9000 FEW017CB TEMPO 2919/2923 26008KT 5000 TSRA FEW010 FEW017CB

超过4000个机场的气象观测和天气预报(METAR&TAF报告)。

可查询的气象台以黄色和红色小点在地图上表示。

将鼠标移到小点上方,可查看气象台名称。

然后点击查看天气观测和预报。

如需切换地图:点击带黑十字的绿色按钮放大地图;点击带横线的绿色按钮缩小地图;或者点击绿色箭头查看邻近地区的地图。


METAR-TAF: